createdAt,value
2023-04-28T00:01:41.997Z,11.35
2023-04-28T00:03:47.150Z,12.38
2023-04-28T00:05:50.760Z,10.70
2023-04-28T00:07:54.160Z,11.20
2023-04-28T00:09:58.008Z,11.73
2023-04-28T00:12:02.729Z,12.02
2023-04-28T00:14:06.358Z,11.73
2023-04-28T00:16:09.816Z,11.65
2023-04-28T00:18:13.280Z,11.77
2023-04-28T00:20:18.269Z,13.88
2023-04-28T00:22:21.973Z,12.55
2023-04-28T00:24:25.534Z,12.85
2023-04-28T00:26:28.997Z,11.88
2023-04-28T00:28:34.646Z,12.40
2023-04-28T00:30:38.732Z,12.48
2023-04-28T00:32:42.141Z,13.00
2023-04-28T00:34:45.587Z,12.02
2023-04-28T00:36:50.448Z,12.70
2023-04-28T00:38:53.783Z,13.10
2023-04-28T00:40:57.248Z,13.30
2023-04-28T00:43:00.689Z,13.32
2023-04-28T00:45:06.623Z,12.95
2023-04-28T00:47:10.550Z,13.50
2023-04-28T00:49:14.110Z,13.10
2023-04-28T00:51:18.821Z,13.27
2023-04-28T00:53:23.706Z,13.70
2023-04-28T00:55:29.193Z,13.32
2023-04-28T00:57:32.989Z,13.13
2023-04-28T00:59:36.870Z,14.20
2023-04-28T01:01:41.848Z,13.43
2023-04-28T01:03:45.799Z,14.10
2023-04-28T01:05:50.048Z,13.80
2023-04-28T01:07:54.234Z,13.52
2023-04-28T01:09:59.195Z,13.20
2023-04-28T01:12:07.869Z,13.55
2023-04-28T01:14:31.592Z,13.38
2023-04-28T01:16:34.360Z,14.25
2023-04-28T01:18:39.925Z,14.18
2023-04-28T01:20:43.675Z,14.05
2023-04-28T01:22:47.288Z,14.05
2023-04-28T01:24:52.214Z,14.05
2023-04-28T01:26:55.635Z,14.63
2023-04-28T01:28:59.292Z,14.48
2023-04-28T01:31:02.699Z,13.82
2023-04-28T01:33:06.132Z,14.68
2023-04-28T01:35:10.068Z,14.35
2023-04-28T01:37:13.598Z,14.23
2023-04-28T01:39:17.253Z,14.73
2023-04-28T01:41:22.473Z,13.95
2023-04-28T01:43:25.933Z,14.50
2023-04-28T01:45:29.371Z,14.15
2023-04-28T01:47:32.775Z,13.93
2023-04-28T01:49:36.178Z,13.95
2023-04-28T01:51:40.710Z,15.25
2023-04-28T01:53:44.966Z,13.95
2023-04-28T01:55:49.193Z,13.10
2023-04-28T01:57:55.005Z,13.85
2023-04-28T01:59:59.666Z,14.02
2023-04-28T02:02:03.709Z,14.02
2023-04-28T02:04:07.291Z,13.48
2023-04-28T02:06:12.964Z,13.93
2023-04-28T02:08:16.622Z,12.93
2023-04-28T02:10:23.335Z,14.45
2023-04-28T02:12:26.735Z,13.45
2023-04-28T02:14:32.343Z,13.05
2023-04-28T02:16:35.804Z,12.93
2023-04-28T02:18:39.514Z,13.40
2023-04-28T02:20:43.059Z,13.50
2023-04-28T02:22:46.819Z,13.65
2023-04-28T02:24:50.400Z,12.60
2023-04-28T02:26:53.842Z,12.77
2023-04-28T02:28:57.220Z,13.43
2023-04-28T02:31:08.844Z,13.82
2023-04-28T02:33:12.670Z,12.82
2023-04-28T02:35:16.527Z,13.73
2023-04-28T02:37:20.727Z,14.38
2023-04-28T02:39:27.267Z,13.38
2023-04-28T02:41:34.775Z,12.73
2023-04-28T02:43:39.037Z,13.35
2023-04-28T02:45:42.526Z,12.73
2023-04-28T02:47:47.336Z,12.80
2023-04-28T02:49:50.767Z,12.90
2023-04-28T02:51:54.324Z,13.02
2023-04-28T02:53:57.750Z,13.85
2023-04-28T02:56:02.258Z,14.38
2023-04-28T02:58:06.422Z,13.00
2023-04-28T03:00:11.702Z,13.65
2023-04-28T03:02:23.336Z,12.90
2023-04-28T03:04:28.702Z,13.32
2023-04-28T03:06:32.245Z,13.70
2023-04-28T03:08:36.572Z,14.20
2023-04-28T03:10:39.966Z,13.90
2023-04-28T03:12:43.426Z,12.93
2023-04-28T03:14:46.836Z,13.40
2023-04-28T03:16:50.363Z,14.10
2023-04-28T03:18:53.925Z,14.05
2023-04-28T03:20:58.780Z,13.75
2023-04-28T03:23:03.797Z,13.98
2023-04-28T03:25:07.760Z,13.45
2023-04-28T03:27:18.006Z,13.95
2023-04-28T03:29:21.379Z,13.85
2023-04-28T03:31:24.785Z,13.68
2023-04-28T03:33:28.403Z,14.75
2023-04-28T03:35:32.279Z,13.38
2023-04-28T03:37:37.197Z,12.95
2023-04-28T03:39:40.679Z,13.43
2023-04-28T03:41:44.249Z,13.40
2023-04-28T03:44:06.684Z,13.52
2023-04-28T03:46:17.707Z,13.55
2023-04-28T03:48:21.616Z,13.48
2023-04-28T03:50:26.693Z,13.43
2023-04-28T03:52:31.274Z,12.93
2023-04-28T03:54:36.180Z,13.50
2023-04-28T03:56:39.876Z,12.63
2023-04-28T03:58:43.300Z,12.20
2023-04-28T04:00:46.735Z,12.90
2023-04-28T04:02:50.359Z,12.35
2023-04-28T04:04:54.403Z,12.82
2023-04-28T04:06:57.958Z,12.68
2023-04-28T04:09:01.672Z,13.50
2023-04-28T04:11:06.657Z,12.85
2023-04-28T04:13:10.071Z,12.88
2023-04-28T04:15:13.667Z,12.23
2023-04-28T04:17:19.619Z,12.18
2023-04-28T04:19:24.176Z,12.77
2023-04-28T04:21:31.858Z,12.30
2023-04-28T04:23:35.401Z,12.13
2023-04-28T04:25:38.841Z,11.48
2023-04-28T04:27:44.367Z,12.85
2023-04-28T04:29:47.871Z,11.70
2023-04-28T04:31:51.941Z,12.60
2023-04-28T04:33:55.405Z,11.50
2023-04-28T04:35:58.839Z,11.32
2023-04-28T04:38:02.806Z,11.48
2023-04-28T04:40:08.604Z,11.30
2023-04-28T04:42:25.289Z,11.30
2023-04-28T04:44:45.092Z,11.05
2023-04-28T04:46:57.314Z,10.82
2023-04-28T04:49:00.915Z,10.88
2023-04-28T04:51:04.447Z,10.63
2023-04-28T04:53:11.694Z,9.77
2023-04-28T04:55:17.480Z,10.48
2023-04-28T04:57:21.219Z,9.48
2023-04-28T04:59:42.552Z,10.18
2023-04-28T05:01:51.890Z,10.15
2023-04-28T05:03:55.472Z,9.43
2023-04-28T05:05:59.138Z,9.15
2023-04-28T05:08:12.490Z,8.45
2023-04-28T05:10:15.943Z,9.02
2023-04-28T05:12:19.989Z,8.77
2023-04-28T05:14:23.620Z,8.52
2023-04-28T05:16:28.228Z,8.23
2023-04-28T05:18:44.617Z,8.27
2023-04-28T05:20:48.577Z,8.55
2023-04-28T05:22:54.471Z,8.10
2023-04-28T05:24:58.150Z,7.75
2023-04-28T05:27:03.048Z,7.72
2023-04-28T05:29:06.476Z,7.82
2023-04-28T05:31:09.911Z,7.93
2023-04-28T05:33:14.010Z,8.15
2023-04-28T05:35:20.491Z,7.70
2023-04-28T05:37:23.997Z,7.25
2023-04-28T05:39:27.764Z,7.20
2023-04-28T05:41:33.958Z,7.00
2023-04-28T05:43:37.380Z,7.10
2023-04-28T05:45:41.330Z,7.18
2023-04-28T05:47:44.923Z,7.07
2023-04-28T05:49:48.358Z,6.43
2023-04-28T05:51:53.197Z,6.20
2023-04-28T05:53:56.867Z,6.47
2023-04-28T05:56:00.567Z,6.07
2023-04-28T05:58:03.957Z,6.38
2023-04-28T06:00:08.671Z,6.30
2023-04-28T06:02:16.971Z,5.80
2023-04-28T06:04:20.965Z,6.00
2023-04-28T06:06:26.092Z,5.60
2023-04-28T06:08:31.697Z,5.13
2023-04-28T06:10:35.155Z,5.55
2023-04-28T06:12:39.909Z,5.28
2023-04-28T06:14:43.502Z,5.72
2023-04-28T06:16:46.932Z,5.40
2023-04-28T06:18:50.691Z,5.07
2023-04-28T06:20:56.056Z,5.47
2023-04-28T06:22:59.634Z,4.55
2023-04-28T06:25:04.587Z,4.60
2023-04-28T06:27:16.270Z,4.18
2023-04-28T06:29:20.638Z,4.53
2023-04-28T06:31:24.317Z,4.47
2023-04-28T06:33:30.048Z,4.53
2023-04-28T06:35:35.786Z,4.40
2023-04-28T06:37:39.260Z,3.92
2023-04-28T06:39:42.661Z,4.35
2023-04-28T06:41:47.393Z,4.35
2023-04-28T06:43:51.742Z,3.80
2023-04-28T06:46:01.092Z,3.60
2023-04-28T06:48:04.575Z,3.40
2023-04-28T06:50:08.982Z,3.80
2023-04-28T06:52:14.373Z,3.38
2023-04-28T06:54:18.644Z,3.30
2023-04-28T06:56:22.369Z,3.40
2023-04-28T06:58:27.156Z,3.30
2023-04-28T07:00:30.587Z,3.33
2023-04-28T07:02:34.116Z,3.30
2023-04-28T07:04:37.694Z,2.88
2023-04-28T07:06:41.184Z,3.28
2023-04-28T07:08:45.522Z,3.38
2023-04-28T07:10:48.919Z,3.80
2023-04-28T07:12:53.130Z,3.17
2023-04-28T07:14:57.887Z,3.20
2023-04-28T07:17:01.294Z,3.25
2023-04-28T07:19:04.701Z,2.83
2023-04-28T07:21:08.124Z,2.80
2023-04-28T07:23:12.904Z,3.35
2023-04-28T07:25:16.447Z,3.10
2023-04-28T07:27:19.980Z,2.95
2023-04-28T07:29:23.391Z,2.95
2023-04-28T07:31:29.250Z,4.75
2023-04-28T07:33:32.602Z,2.65
2023-04-28T07:35:36.030Z,3.08
2023-04-28T07:37:39.544Z,3.42
2023-04-28T07:39:42.933Z,3.10
2023-04-28T07:41:46.423Z,3.00
2023-04-28T07:43:49.843Z,3.10
2023-04-28T07:45:54.758Z,3.33
2023-04-28T07:47:59.685Z,2.83
2023-04-28T07:50:05.148Z,2.85
2023-04-28T07:52:08.532Z,3.13
2023-04-28T07:54:12.013Z,2.97
2023-04-28T07:56:16.148Z,3.03
2023-04-28T07:58:19.676Z,3.45
2023-04-28T08:00:23.377Z,2.83
2023-04-28T08:02:27.478Z,3.13
2023-04-28T08:04:34.125Z,2.83
2023-04-28T08:06:38.022Z,3.10
2023-04-28T08:08:41.816Z,2.92
2023-04-28T08:10:45.347Z,3.20
2023-04-28T08:12:48.888Z,3.00
2023-04-28T08:14:52.385Z,2.70
2023-04-28T08:16:56.229Z,2.70
2023-04-28T08:19:00.523Z,3.17
2023-04-28T08:21:05.813Z,2.90
2023-04-28T08:23:09.335Z,2.80
2023-04-28T08:25:13.057Z,3.28
2023-04-28T08:27:16.707Z,2.80
2023-04-28T08:29:20.097Z,3.13
2023-04-28T08:31:23.966Z,3.40
2023-04-28T08:33:27.355Z,2.80
2023-04-28T08:35:31.373Z,3.22
2023-04-28T08:37:36.647Z,2.90
2023-04-28T08:39:40.088Z,3.22
2023-04-28T08:41:43.501Z,3.30
2023-04-28T08:43:47.014Z,2.85
2023-04-28T08:45:50.489Z,3.30
2023-04-28T08:47:56.216Z,2.92
2023-04-28T08:50:05.372Z,3.30
2023-04-28T08:52:14.594Z,3.28
2023-04-28T08:54:26.557Z,3.00
2023-04-28T08:56:34.685Z,3.55
2023-04-28T08:58:38.616Z,3.22
2023-04-28T09:00:41.954Z,4.28
2023-04-28T09:02:45.480Z,3.10
2023-04-28T09:04:49.195Z,3.63
2023-04-28T09:06:52.742Z,3.13
2023-04-28T09:08:56.125Z,3.70
2023-04-28T09:11:18.243Z,3.90
2023-04-28T09:13:27.048Z,3.60
2023-04-28T09:15:33.877Z,3.47
2023-04-28T09:17:49.841Z,3.40
2023-04-28T09:19:53.459Z,3.50
2023-04-28T09:21:58.392Z,3.88
2023-04-28T09:24:01.816Z,3.90
2023-04-28T09:26:07.854Z,3.92
2023-04-28T09:28:23.393Z,4.40
2023-04-28T09:30:41.328Z,3.67
2023-04-28T09:32:44.989Z,3.50
2023-04-28T09:34:50.308Z,4.10
2023-04-28T09:36:53.802Z,3.58
2023-04-28T09:38:59.325Z,3.50
2023-04-28T09:41:03.928Z,3.60
2023-04-28T09:43:26.269Z,3.55
2023-04-28T09:45:42.590Z,3.40
2023-04-28T09:47:48.376Z,3.58
2023-04-28T09:49:59.870Z,3.80
2023-04-28T09:52:14.424Z,3.20
2023-04-28T09:54:18.880Z,3.47
2023-04-28T09:56:23.395Z,3.80
2023-04-28T09:58:29.202Z,3.72
2023-04-28T10:00:35.863Z,3.50
2023-04-28T10:02:43.900Z,3.15
2023-04-28T10:04:49.437Z,3.50
2023-04-28T10:06:53.355Z,3.75
2023-04-28T10:08:58.668Z,3.60
2023-04-28T10:11:03.109Z,3.50
2023-04-28T10:13:06.910Z,3.80
2023-04-28T10:15:14.557Z,3.55
2023-04-28T10:17:19.024Z,3.53
2023-04-28T10:19:22.432Z,3.75
2023-04-28T10:21:28.271Z,3.42
2023-04-28T10:24:11.656Z,3.72
2023-04-28T10:26:18.449Z,3.45
2023-04-28T10:28:25.440Z,3.35
2023-04-28T10:30:33.033Z,3.55
2023-04-28T10:32:39.398Z,3.88
2023-04-28T10:34:43.071Z,4.30
2023-04-28T10:36:53.018Z,3.72
2023-04-28T10:39:14.896Z,4.05
2023-04-28T10:41:35.708Z,3.70
2023-04-28T10:43:40.988Z,3.70
2023-04-28T10:46:06.502Z,3.70
2023-04-28T10:48:10.120Z,3.67
2023-04-28T10:50:13.611Z,4.00
2023-04-28T10:52:50.103Z,3.85
2023-04-28T10:55:26.979Z,4.10
2023-04-28T10:57:30.468Z,3.97
2023-04-28T10:59:33.799Z,4.30
2023-04-28T11:01:40.497Z,4.15
2023-04-28T11:03:51.810Z,3.80
2023-04-28T11:06:20.705Z,3.20
2023-04-28T11:08:33.340Z,4.35
2023-04-28T11:11:09.985Z,3.80
2023-04-28T11:13:35.079Z,4.50
2023-04-28T11:15:39.392Z,3.85
2023-04-28T11:17:44.308Z,4.10
2023-04-28T11:19:48.817Z,4.30
2023-04-28T11:21:53.180Z,4.22
2023-04-28T11:23:56.662Z,4.05
2023-04-28T11:26:00.169Z,3.80
2023-04-28T11:28:07.088Z,4.45
2023-04-28T11:30:22.381Z,4.05
2023-04-28T11:32:29.912Z,4.30
2023-04-28T11:34:35.187Z,5.05
2023-04-28T11:36:40.065Z,4.20
2023-04-28T11:38:47.122Z,4.00
2023-04-28T11:41:00.389Z,4.30
2023-04-28T11:43:04.644Z,4.15
2023-04-28T11:45:13.873Z,4.25
2023-04-28T11:47:17.285Z,4.50
2023-04-28T11:49:21.355Z,4.30
2023-04-28T11:51:34.166Z,4.53
2023-04-28T11:53:44.145Z,4.10
2023-04-28T11:55:47.659Z,4.53
2023-04-28T11:57:51.018Z,4.07
2023-04-28T11:59:54.475Z,4.65
2023-04-28T12:02:00.333Z,3.85
2023-04-28T12:04:03.949Z,4.68
2023-04-28T12:06:07.468Z,3.97
2023-04-28T12:08:12.243Z,4.05
2023-04-28T12:10:17.708Z,3.97
2023-04-28T12:12:45.128Z,4.43
2023-04-28T12:14:57.461Z,4.70
2023-04-28T12:17:01.351Z,4.55
2023-04-28T12:19:08.016Z,4.25
2023-04-28T12:21:23.003Z,3.97
2023-04-28T12:23:34.263Z,4.30
2023-04-28T12:25:45.292Z,4.65
2023-04-28T12:28:02.613Z,4.13
2023-04-28T12:30:25.540Z,4.03
2023-04-28T12:32:43.545Z,4.03
2023-04-28T12:34:48.298Z,4.15
2023-04-28T12:36:52.904Z,4.60
2023-04-28T12:38:57.902Z,4.82
2023-04-28T12:41:01.809Z,4.38
2023-04-28T12:43:05.247Z,4.20
2023-04-28T12:45:09.811Z,4.38
2023-04-28T12:47:13.231Z,4.10
2023-04-28T12:49:16.765Z,4.55
2023-04-28T12:51:20.386Z,5.13
2023-04-28T12:53:23.761Z,4.07
2023-04-28T12:55:28.790Z,4.30
2023-04-28T12:57:32.421Z,4.85
2023-04-28T12:59:36.126Z,4.20
2023-04-28T13:01:39.952Z,4.45
2023-04-28T13:03:44.437Z,4.72
2023-04-28T13:05:48.272Z,4.22
2023-04-28T13:07:52.593Z,5.22
2023-04-28T13:09:57.239Z,4.60
2023-04-28T13:12:03.604Z,4.28
2023-04-28T13:14:07.273Z,4.70
2023-04-28T13:16:10.625Z,4.70
2023-04-28T13:18:14.124Z,4.35
2023-04-28T13:20:17.635Z,4.55
2023-04-28T13:22:21.869Z,4.50
2023-04-28T13:24:25.314Z,4.55
2023-04-28T13:26:28.800Z,4.70
2023-04-28T13:28:33.602Z,4.43
2023-04-28T13:30:37.022Z,4.65
2023-04-28T13:32:40.698Z,4.93
2023-04-28T13:34:44.309Z,5.20
2023-04-28T13:36:51.006Z,4.78
2023-04-28T13:38:54.367Z,4.60
2023-04-28T13:40:57.814Z,4.40
2023-04-28T13:43:01.266Z,4.68
2023-04-28T13:45:06.998Z,4.45
2023-04-28T13:47:11.157Z,4.10
2023-04-28T13:49:14.601Z,4.90
2023-04-28T13:51:17.964Z,4.85
2023-04-28T13:53:21.399Z,4.97
2023-04-28T13:55:27.944Z,4.90
2023-04-28T13:57:31.572Z,4.72
2023-04-28T13:59:36.087Z,4.82
2023-04-28T14:01:41.116Z,4.85
2023-04-28T14:03:44.930Z,4.78
2023-04-28T14:05:49.950Z,5.00
2023-04-28T14:07:55.489Z,4.97
2023-04-28T14:09:58.968Z,4.60
2023-04-28T14:12:08.454Z,5.45
2023-04-28T14:14:13.404Z,5.10
2023-04-28T14:16:19.771Z,5.18
2023-04-28T14:18:25.224Z,5.40
2023-04-28T14:20:30.598Z,5.03
2023-04-28T14:22:34.060Z,5.82
2023-04-28T14:24:39.848Z,4.93
2023-04-28T14:26:44.082Z,5.40
2023-04-28T14:28:47.988Z,5.40
2023-04-28T14:30:51.530Z,5.07
2023-04-28T14:32:55.133Z,4.93
2023-04-28T14:35:00.033Z,5.57
2023-04-28T14:37:03.472Z,5.20
2023-04-28T14:39:08.279Z,6.03
2023-04-28T14:41:12.238Z,5.82
2023-04-28T14:43:15.666Z,5.97
2023-04-28T14:45:19.297Z,6.28
2023-04-28T14:47:22.737Z,5.95
2023-04-28T14:49:28.428Z,6.10
2023-04-28T14:51:33.596Z,6.07
2023-04-28T14:53:37.003Z,6.57
2023-04-28T14:55:42.554Z,6.75
2023-04-28T14:57:49.369Z,6.82
2023-04-28T14:59:53.635Z,6.80
2023-04-28T15:01:58.146Z,7.63
2023-04-28T15:04:02.214Z,6.97
2023-04-28T15:06:07.043Z,7.43
2023-04-28T15:08:13.977Z,7.53
2023-04-28T15:10:19.342Z,7.53
2023-04-28T15:12:22.754Z,7.43
2023-04-28T15:14:26.200Z,7.70
2023-04-28T15:16:29.802Z,7.72
2023-04-28T15:18:33.337Z,7.70
2023-04-28T15:20:38.406Z,8.18
2023-04-28T15:22:44.613Z,8.25
2023-04-28T15:24:52.509Z,8.10
2023-04-28T15:26:56.631Z,8.52
2023-04-28T15:29:00.858Z,7.97
2023-04-28T15:31:05.050Z,8.27
2023-04-28T15:33:08.679Z,8.25
2023-04-28T15:35:15.134Z,8.10
2023-04-28T15:37:41.502Z,8.55
2023-04-28T15:39:46.643Z,8.00
2023-04-28T15:41:52.485Z,8.02
2023-04-28T15:43:57.375Z,8.80
2023-04-28T15:46:04.943Z,8.50
2023-04-28T15:48:10.201Z,8.48
2023-04-28T15:50:14.173Z,8.40
2023-04-28T15:52:18.129Z,9.40
2023-04-28T15:54:21.550Z,11.23
2023-04-28T15:56:25.042Z,16.90
2023-04-28T15:58:29.870Z,10.93
2023-04-28T16:00:34.220Z,7.70
2023-04-28T16:02:39.496Z,8.18
2023-04-28T16:04:43.797Z,7.38
2023-04-28T16:06:48.102Z,7.88
2023-04-28T16:08:51.563Z,7.70
2023-04-28T16:10:55.072Z,7.57
2023-04-28T16:12:59.008Z,7.55
2023-04-28T16:15:04.514Z,7.57
2023-04-28T16:17:09.101Z,7.38
2023-04-28T16:19:12.972Z,7.72
2023-04-28T16:21:18.108Z,7.65
2023-04-28T16:23:21.590Z,7.75
2023-04-28T16:25:25.155Z,6.72
2023-04-28T16:27:28.523Z,6.82
2023-04-28T16:29:33.160Z,6.65
2023-04-28T16:31:38.009Z,7.53
2023-04-28T16:33:43.978Z,6.63
2023-04-28T16:35:55.787Z,7.28
2023-04-28T16:37:59.245Z,7.00
2023-04-28T16:40:03.600Z,7.32
2023-04-28T16:42:07.341Z,6.90
2023-04-28T16:44:11.289Z,6.90
2023-04-28T16:46:15.940Z,7.35
2023-04-28T16:48:21.984Z,7.57
2023-04-28T16:50:25.499Z,7.53
2023-04-28T16:52:28.956Z,8.43
2023-04-28T16:54:33.685Z,7.50
2023-04-28T16:56:39.092Z,7.38
2023-04-28T16:58:42.524Z,7.68
2023-04-28T17:00:45.917Z,7.65
2023-04-28T17:02:49.655Z,8.00
2023-04-28T17:04:54.466Z,8.35
2023-04-28T17:06:58.241Z,7.60
2023-04-28T17:09:02.049Z,7.88
2023-04-28T17:11:06.338Z,9.00
2023-04-28T17:13:10.200Z,8.50
2023-04-28T17:15:17.217Z,12.13
2023-04-28T17:17:21.064Z,11.90
2023-04-28T17:19:24.797Z,10.95
2023-04-28T17:21:30.127Z,10.35
2023-04-28T17:23:33.517Z,11.52
2023-04-28T17:25:39.126Z,10.63
2023-04-28T17:27:42.595Z,11.00
2023-04-28T17:29:46.449Z,12.20
2023-04-28T17:31:50.117Z,17.20
2023-04-28T17:33:55.233Z,17.98
2023-04-28T17:35:59.303Z,13.20
2023-04-28T17:38:07.197Z,13.02
2023-04-28T17:40:12.742Z,12.25
2023-04-28T17:42:16.575Z,13.82
2023-04-28T17:44:21.070Z,13.38
2023-04-28T17:46:25.039Z,14.40
2023-04-28T17:48:28.633Z,13.57
2023-04-28T17:50:33.134Z,14.07
2023-04-28T17:52:40.236Z,13.85
2023-04-28T17:54:46.322Z,13.02
2023-04-28T17:56:50.773Z,13.10
2023-04-28T17:58:55.678Z,13.20
2023-04-28T18:01:03.335Z,13.55
2023-04-28T18:03:09.025Z,13.40
2023-04-28T18:05:12.882Z,13.23
2023-04-28T18:07:16.911Z,13.73
2023-04-28T18:09:20.323Z,13.10
2023-04-28T18:11:27.165Z,14.70
2023-04-28T18:13:32.698Z,15.63
2023-04-28T18:15:37.762Z,15.60
2023-04-28T18:17:41.232Z,16.02
2023-04-28T18:19:45.388Z,16.90
2023-04-28T18:21:48.767Z,16.00
2023-04-28T18:23:52.149Z,17.33
2023-04-28T18:25:55.498Z,18.30
2023-04-28T18:28:00.592Z,18.58
2023-04-28T18:30:04.677Z,18.33
2023-04-28T18:32:08.506Z,20.10
2023-04-28T18:34:12.372Z,20.52
2023-04-28T18:36:16.280Z,21.88
2023-04-28T18:38:20.445Z,19.08
2023-04-28T18:40:24.065Z,19.20
2023-04-28T18:42:28.389Z,20.98
2023-04-28T18:44:33.337Z,20.15
2023-04-28T18:46:37.246Z,19.50
2023-04-28T18:48:41.354Z,20.45
2023-04-28T18:50:45.183Z,20.67
2023-04-28T18:52:48.741Z,19.65
2023-04-28T18:54:52.198Z,20.23
2023-04-28T18:56:55.634Z,20.15
2023-04-28T18:58:59.720Z,20.00
2023-04-28T19:01:04.950Z,20.13
2023-04-28T19:03:08.835Z,20.30
2023-04-28T19:05:13.890Z,21.10
2023-04-28T19:07:18.393Z,21.27
2023-04-28T19:09:22.115Z,21.38
2023-04-28T19:11:25.911Z,21.48
2023-04-28T19:13:29.250Z,20.83
2023-04-28T19:15:33.089Z,22.55
2023-04-28T19:17:38.014Z,23.30
2023-04-28T19:19:41.862Z,21.65
2023-04-28T19:21:45.998Z,22.27
2023-04-28T19:23:49.876Z,23.17
2023-04-28T19:25:53.266Z,22.48
2023-04-28T19:27:56.955Z,22.13
2023-04-28T19:30:00.682Z,22.88
2023-04-28T19:32:04.273Z,21.85
2023-04-28T19:34:09.328Z,23.13
2023-04-28T19:36:12.790Z,22.77
2023-04-28T19:38:16.993Z,22.75
2023-04-28T19:40:20.812Z,22.48
2023-04-28T19:42:24.686Z,23.10
2023-04-28T19:44:28.345Z,22.27
2023-04-28T19:46:32.082Z,23.02
2023-04-28T19:48:35.768Z,23.45
2023-04-28T19:50:40.614Z,23.27
2023-04-28T19:52:44.493Z,25.92
2023-04-28T19:54:48.433Z,22.75
2023-04-28T19:56:52.216Z,21.23
2023-04-28T19:58:55.611Z,20.30
2023-04-28T20:00:59.164Z,19.88
2023-04-28T20:03:02.935Z,20.13
2023-04-28T20:05:07.317Z,18.83
2023-04-28T20:07:12.278Z,19.42
2023-04-28T20:09:15.673Z,19.88
2023-04-28T20:11:19.675Z,18.83
2023-04-28T20:13:23.386Z,19.05
2023-04-28T20:15:26.762Z,18.70
2023-04-28T20:17:30.213Z,18.33
2023-04-28T20:19:34.980Z,18.13
2023-04-28T20:21:39.702Z,17.73
2023-04-28T20:23:45.084Z,18.15
2023-04-28T20:25:48.829Z,17.70
2023-04-28T20:27:52.193Z,18.00
2023-04-28T20:29:56.389Z,18.20
2023-04-28T20:31:59.937Z,18.50
2023-04-28T20:34:05.552Z,18.70
2023-04-28T20:36:09.407Z,18.65
2023-04-28T20:38:12.883Z,18.20
2023-04-28T20:40:17.892Z,17.58
2023-04-28T20:42:21.445Z,17.70
2023-04-28T20:44:24.907Z,17.83
2023-04-28T20:46:28.391Z,17.52
2023-04-28T20:48:31.990Z,17.58
2023-04-28T20:50:39.530Z,18.10
2023-04-28T20:52:43.273Z,21.52
2023-04-28T20:54:46.995Z,20.55
2023-04-28T20:56:51.763Z,16.98
2023-04-28T20:58:55.977Z,17.42
2023-04-28T21:00:59.372Z,16.77
2023-04-28T21:03:04.711Z,17.85
2023-04-28T21:05:09.126Z,17.23
2023-04-28T21:07:12.524Z,15.65
2023-04-28T21:09:16.324Z,15.90
2023-04-28T21:11:20.218Z,15.93
2023-04-28T21:13:25.047Z,16.65
2023-04-28T21:15:28.905Z,16.23
2023-04-28T21:17:32.392Z,16.38
2023-04-28T21:19:36.118Z,16.75
2023-04-28T21:21:39.581Z,17.00
2023-04-28T21:23:43.199Z,17.63
2023-04-28T21:25:46.876Z,16.85
2023-04-28T21:27:50.625Z,17.10
2023-04-28T21:29:55.431Z,17.23
2023-04-28T21:31:58.865Z,17.08
2023-04-28T21:34:02.235Z,17.35
2023-04-28T21:36:07.482Z,16.85
2023-04-28T21:38:11.029Z,17.38
2023-04-28T21:40:14.771Z,16.65
2023-04-28T21:42:18.133Z,17.50
2023-04-28T21:44:21.637Z,15.45
2023-04-28T21:46:26.478Z,17.80
2023-04-28T21:48:29.901Z,17.65
2023-04-28T21:50:33.758Z,17.30
2023-04-28T21:52:38.543Z,15.93
2023-04-28T21:54:42.044Z,17.60
2023-04-28T21:56:46.624Z,16.75
2023-04-28T21:58:50.048Z,16.67
2023-04-28T22:00:55.116Z,16.52
2023-04-28T22:03:00.726Z,16.38
2023-04-28T22:05:04.281Z,15.15
2023-04-28T22:07:07.788Z,15.50
2023-04-28T22:09:11.308Z,14.48
2023-04-28T22:11:14.958Z,15.05
2023-04-28T22:13:18.472Z,14.18
2023-04-28T22:15:22.549Z,13.93
2023-04-28T22:17:26.088Z,13.52
2023-04-28T22:19:30.877Z,13.15
2023-04-28T22:21:34.909Z,12.82
2023-04-28T22:23:38.439Z,12.65
2023-04-28T22:25:42.405Z,12.05
2023-04-28T22:27:45.855Z,13.07
2023-04-28T22:29:49.870Z,12.15
2023-04-28T22:31:53.695Z,12.15
2023-04-28T22:33:57.561Z,12.23
2023-04-28T22:36:03.062Z,11.55
2023-04-28T22:38:06.663Z,12.13
2023-04-28T22:40:11.310Z,11.38
2023-04-28T22:42:14.860Z,11.65
2023-04-28T22:44:18.632Z,11.55
2023-04-28T22:46:22.593Z,11.65
2023-04-28T22:48:26.161Z,11.35
2023-04-28T22:50:31.392Z,12.10
2023-04-28T22:52:36.708Z,11.13
2023-04-28T22:54:40.088Z,11.82
2023-04-28T22:56:43.464Z,11.82
2023-04-28T22:58:46.833Z,11.52
2023-04-28T23:00:50.253Z,11.30
2023-04-28T23:02:53.747Z,11.77
2023-04-28T23:04:57.504Z,11.27
2023-04-28T23:07:00.977Z,11.20
2023-04-28T23:09:05.867Z,11.88
2023-04-28T23:11:09.431Z,12.32
2023-04-28T23:13:12.930Z,12.13
2023-04-28T23:15:16.313Z,11.82
2023-04-28T23:17:19.756Z,12.27
2023-04-28T23:19:23.171Z,12.18
2023-04-28T23:21:28.432Z,11.68
2023-04-28T23:23:32.714Z,12.70
2023-04-28T23:25:37.890Z,12.13
2023-04-28T23:27:41.233Z,12.95
2023-04-28T23:29:44.628Z,12.93
2023-04-28T23:31:52.602Z,13.48
2023-04-28T23:33:56.204Z,13.00
2023-04-28T23:35:59.711Z,13.30
2023-04-28T23:38:03.132Z,13.35
2023-04-28T23:40:07.838Z,12.70
2023-04-28T23:42:12.562Z,13.20
2023-04-28T23:44:15.969Z,13.40
2023-04-28T23:46:19.653Z,13.32
2023-04-28T23:48:23.324Z,13.98
2023-04-28T23:50:27.885Z,13.60
2023-04-28T23:52:31.362Z,12.95
2023-04-28T23:54:35.060Z,12.93
2023-04-28T23:56:38.575Z,13.73
2023-04-28T23:58:43.592Z,13.40
